Monday, June 25, 2018, 9:37 AM EDT
Back to Local

KVAY, Mt Holly South Jersey Rgnl

Location: Medford, NJ, United States Lat: 39.933
Local Time: 9:37 AM EDT (13:37 GMT) Lon: -74.833
Time Zone: US/Eastern Elev: 52 ft

Show me the last for .
Show Decoded

2018-06-25 08:54 METAR KVAY 251254Z AUTO 33010G15KT 10SM CLR 22/16 A2999 RMK AO2 SLP155 T02220156
                 =
2018-06-25 07:54 METAR KVAY 251154Z AUTO 34011G17KT 10SM CLR 22/16 A2998 RMK AO2 SLP152 70002
                 T02170161 10217 20194 51028 $ =
2018-06-25 06:54 METAR KVAY 251054Z AUTO 32006KT 10SM CLR 20/17 A2997 RMK AO2 SLP147 T02000167 $
                 =
2018-06-25 05:54 METAR KVAY 250954Z AUTO 32006KT 10SM CLR 19/17 A2994 RMK AO2 SLP137 T01940167 $
                 =
2018-06-25 04:54 METAR KVAY 250854Z AUTO 31005KT 10SM CLR 20/18 A2990 RMK AO2 SLP124 T02000178
                 53015 $ =
2018-06-25 03:54 METAR KVAY 250754Z AUTO 28003KT 10SM CLR 21/18 A2988 RMK AO2 SLP118 T02060178 $
                 =
2018-06-25 02:54 METAR KVAY 250654Z AUTO 26005KT 10SM CLR 21/18 A2987 RMK AO2 SLP113 T02060178 $
                 =
2018-06-25 01:54 METAR KVAY 250554Z AUTO 26004KT 10SM CLR 21/19 A2986 RMK AO2 SLP109 60002
                 T02110189 10283 20211 50004 $ =
2018-06-25 00:54 METAR KVAY 250454Z AUTO 28005KT 10SM CLR 22/19 A2986 RMK AO2 SLP111 T02170194
                 403110189 $ =
2018-06-24 23:54 METAR KVAY 250354Z AUTO 28004KT 10SM CLR 22/21 A2986 RMK AO2 SLP109 T02220206 $
                 =
2018-06-24 22:54 METAR KVAY 250254Z AUTO 27005KT 10SM CLR 23/21 A2984 RMK AO2 RAE12 SLP105 P0001
                 60002 T02280206 51014 $ =
2018-06-24 21:54 METAR KVAY 250154Z AUTO 28007KT 6SM RA FEW050 SCT090 BKN110 24/19 A2984 RMK AO2
                 RAB50 SLP105 P0001 T02390194 $ =
2018-06-24 20:54 METAR KVAY 250054Z AUTO 25004KT 10SM 25/19 A2981 RMK AO2 RAB24E34 SLP094 P0000
                 T02500194 $ =
2018-06-24 19:54 METAR KVAY 242354Z AUTO 23005KT 10SM CLR 28/19 A2980 RMK AO2 LTG DSNT NW SLP091
                 T02830189 10311 20283 53005 =
2018-06-24 18:54 METAR KVAY 242254Z AUTO 23007KT 10SM CLR 29/19 A2978 RMK AO2 SLP083 T02890189 =
2018-06-24 17:54 METAR KVAY 242154Z AUTO 23007KT 10SM FEW060 29/19 A2978 RMK AO2 SLP085 T02940194
                 =
2018-06-24 16:54 METAR KVAY 242054Z AUTO 23005KT 10SM FEW060 OVC095 29/20 A2979 RMK AO2 SLP085
                 T02940200 56012 =
2018-06-24 15:54 METAR KVAY 241954Z AUTO 24007KT 10SM FEW075 FEW090 31/21 A2979 RMK AO2 SLP088
                 T03110206 =
2018-06-24 14:54 METAR KVAY 241854Z AUTO 24007G15KT 10SM SCT100 30/19 A2980 RMK AO2 SLP090
                 T03000189 =
2018-06-24 13:54 METAR KVAY 241754Z AUTO 25009KT 10SM SCT048 BKN055 OVC075 29/19 A2982 RMK AO2
                 SLP097 T02890194 10294 20206 55007 =
2018-06-24 12:54 METAR KVAY 241654Z AUTO 25008KT 10SM FEW044 29/19 A2982 RMK AO2 SLP097 T02890194
                 =
2018-06-24 11:54 METAR KVAY 241554Z AUTO 25010G15KT 10SM FEW038 28/20 A2983 RMK AO2 SLP102
                 T02830200 =
2018-06-24 10:54 METAR KVAY 241454Z AUTO 25007KT 10SM SCT025 27/21 A2984 RMK AO2 SLP104 T02670206
                 58002 =
2018-06-24 10:31 METAR KVAY 241431Z AUTO VRB04KT 10SM SCT021 26/21 A2984 RMK AO2 T02610211 =
2018-06-24 10:24 METAR KVAY 241424Z AUTO 23003KT 10SM BKN021 26/21 A2984 RMK AO2 T02610211 =
2018-06-24 09:54 METAR KVAY 241354Z AUTO VRB04KT 10SM FEW014 25/21 A2985 RMK AO2 SLP106 T02500211
                 =

Support USWX by starting your Amazon purchase here.